Time;durP1;ratioP1;P1;durP2;ratioP2;P2;SDS_P1;SDS_P2;PMS_P1;PMS_P2;Temp;Humidity;BMP_temperature;BMP_pressure;BME280_temperature;BME280_humidity;BME280_pressure;Samples;Min_cycle;Max_cycle;Signal;HPM_P1;HPM_P2
2023/07/01 00:01:39;;;;;;;4.07;3.40;;;26.10;50.80;;;;;;5014980;28;20217;-47
2023/07/01 00:04:05;;;;;;;3.50;3.07;;;26.10;50.90;;;;;;5030637;28;20668;-49
2023/07/01 00:06:30;;;;;;;5.40;2.73;;;26.10;51.00;;;;;;5023345;28;20598;-48
2023/07/01 00:08:56;;;;;;;3.67;3.37;;;26.10;50.70;;;;;;5030262;28;20992;-48
2023/07/01 00:11:22;;;;;;;3.40;2.60;;;26.20;50.70;;;;;;5023003;28;20200;-49
2023/07/01 00:13:48;;;;;;;5.10;3.10;;;26.20;50.60;;;;;;5020993;28;20641;-49
2023/07/01 00:16:14;;;;;;;4.00;3.10;;;26.20;50.50;;;;;;5018420;28;20768;-48
2023/07/01 00:18:41;;;;;;;3.70;3.37;;;26.10;50.20;;;;;;5029287;28;20429;-48
2023/07/01 00:21:07;;;;;;;4.40;3.03;;;26.10;50.20;;;;;;5021136;28;20542;-47
2023/07/01 00:23:33;;;;;;;3.30;2.83;;;25.90;49.20;;;;;;5020159;28;20453;-48
2023/07/01 00:25:58;;;;;;;3.77;2.80;;;25.70;49.10;;;;;;5012710;28;20240;-46
2023/07/01 00:28:24;;;;;;;4.57;2.60;;;25.60;49.30;;;;;;5024917;28;20444;-46
2023/07/01 00:30:49;;;;;;;2.60;2.40;;;25.50;49.20;;;;;;5031437;28;20861;-51
2023/07/01 00:33:15;;;;;;;2.67;2.47;;;25.40;49.20;;;;;;5024047;28;20217;-47
2023/07/01 00:35:41;;;;;;;6.43;3.00;;;25.40;49.40;;;;;;5030010;28;20204;-47
2023/07/01 00:38:06;;;;;;;2.73;2.40;;;25.30;49.50;;;;;;5028188;28;20646;-47
2023/07/01 00:40:32;;;;;;;3.90;2.93;;;25.30;49.50;;;;;;5030084;28;20228;-47
2023/07/01 00:42:57;;;;;;;3.40;2.70;;;25.10;49.60;;;;;;5025752;28;20193;-51
2023/07/01 00:45:23;;;;;;;3.33;2.30;;;25.00;49.70;;;;;;5018360;28;20190;-47
2023/07/01 00:47:49;;;;;;;6.03;2.80;;;24.90;50.10;;;;;;5028913;28;20198;-47
2023/07/01 00:50:15;;;;;;;3.30;2.43;;;24.80;50.20;;;;;;5020185;28;20271;-48
2023/07/01 00:52:42;;;;;;;2.53;2.33;;;24.80;50.20;;;;;;5015693;28;20255;-48
2023/07/01 00:55:09;;;;;;;3.00;2.70;;;24.80;50.30;;;;;;5022080;28;20431;-48
2023/07/01 00:57:35;;;;;;;3.83;2.77;;;24.90;50.20;;;;;;5025314;28;20440;-48
2023/07/01 01:00:10;;;;;;;3.40;2.47;;;24.90;50.20;;;;;;5020268;28;20443;-48
2023/07/01 01:02:45;;;;;;;3.17;2.87;;;25.00;50.00;;;;;;5028401;28;20459;-47
2023/07/01 01:05:15;;;;;;;2.50;2.30;;;25.10;50.00;;;;;;5025811;28;20463;-47
2023/07/01 01:07:53;;;;;;;3.50;2.53;;;25.10;49.90;;;;;;5017427;28;20507;-50
2023/07/01 01:10:22;;;;;;;4.03;2.60;;;25.10;49.90;;;;;;5019968;28;20443;-49
2023/07/01 01:12:53;;;;;;;2.77;2.53;;;25.20;49.80;;;;;;5031235;28;20492;-48
2023/07/01 01:15:19;;;;;;;3.17;2.63;;;25.20;49.80;;;;;;5028062;28;20530;-47
2023/07/01 01:17:45;;;;;;;8.53;2.60;;;25.20;49.70;;;;;;5015338;28;21149;-47
2023/07/01 01:20:20;;;;;;;4.33;2.80;;;25.20;50.00;;;;;;5024955;28;20504;-48
2023/07/01 01:22:54;;;;;;;2.90;2.60;;;25.20;50.00;;;;;;5016830;28;20532;-47
2023/07/01 01:25:51;;;;;;;4.47;2.60;;;25.20;49.80;;;;;;5019892;28;20851;-50
2023/07/01 01:28:17;;;;;;;3.63;3.20;;;25.20;49.90;;;;;;5013547;28;20463;-47
2023/07/01 01:30:43;;;;;;;2.60;2.40;;;25.10;49.90;;;;;;5023600;28;20436;-47
2023/07/01 01:33:09;;;;;;;3.10;2.17;;;25.10;50.00;;;;;;5020131;28;20190;-47
2023/07/01 01:35:34;;;;;;;3.90;3.40;;;25.10;50.10;;;;;;5018671;28;20198;-47
2023/07/01 01:38:22;;;;;;;3.27;2.60;;;25.00;50.10;;;;;;5020717;28;20208;-52
2023/07/01 01:41:11;;;;;;;4.67;2.90;;;24.90;50.40;;;;;;5011354;28;20592;-49
2023/07/01 01:43:39;;;;;;;5.20;2.50;;;24.90;50.40;;;;;;5023921;28;20458;-50
2023/07/01 01:46:07;;;;;;;4.97;2.33;;;24.90;50.70;;;;;;5016888;28;20448;-49
2023/07/01 01:48:33;;;;;;;4.07;2.80;;;24.80;51.00;;;;;;5014937;28;20494;-47
2023/07/01 01:51:00;;;;;;;4.47;2.70;;;24.80;50.60;;;;;;5024063;28;20489;-49
2023/07/01 01:53:28;;;;;;;3.17;2.83;;;24.70;50.00;;;;;;5018455;28;20940;-48
2023/07/01 01:55:54;;;;;;;5.17;3.10;;;24.50;50.20;;;;;;5021967;28;21001;-47
2023/07/01 01:58:20;;;;;;;3.93;2.60;;;24.50;50.50;;;;;;5018087;28;20453;-51
2023/07/01 02:00:46;;;;;;;6.77;2.70;;;24.40;50.20;;;;;;5015531;28;20951;-48
2023/07/01 02:03:12;;;;;;;6.00;2.93;;;24.50;50.40;;;;;;5024973;28;20193;-48
2023/07/01 02:05:38;;;;;;;5.70;3.13;;;24.50;50.50;;;;;;5027025;28;21927;-46
2023/07/01 02:08:04;;;;;;;3.47;3.00;;;24.60;50.40;;;;;;5027943;28;20212;-47
2023/07/01 02:10:30;;;;;;;2.90;2.60;;;24.70;50.30;;;;;;5026778;28;20600;-47
2023/07/01 02:12:56;;;;;;;5.93;3.20;;;24.70;50.20;;;;;;5027923;28;20598;-48
2023/07/01 02:15:22;;;;;;;7.33;2.53;;;24.70;50.30;;;;;;5020930;28;20476;-47
2023/07/01 02:17:47;;;;;;;3.53;2.40;;;24.70;50.10;;;;;;5023310;28;20240;-47
2023/07/01 02:20:13;;;;;;;5.40;3.60;;;24.60;50.30;;;;;;5024576;28;20437;-47
2023/07/01 02:22:38;;;;;;;3.97;3.33;;;24.50;50.20;;;;;;5023695;28;20197;-48
2023/07/01 02:25:05;;;;;;;3.70;3.40;;;24.50;50.60;;;;;;5025408;28;20236;-47
2023/07/01 02:27:31;;;;;;;4.63;3.10;;;24.40;50.70;;;;;;5026974;28;21791;-47
2023/07/01 02:29:57;;;;;;;3.67;3.00;;;24.20;50.80;;;;;;5026573;28;20444;-47
2023/07/01 02:32:23;;;;;;;7.10;3.47;;;24.10;51.20;;;;;;5030303;28;20447;-49
2023/07/01 02:34:49;;;;;;;3.27;2.90;;;24.10;51.50;;;;;;5023783;28;20797;-47
2023/07/01 02:37:14;;;;;;;3.80;3.00;;;24.10;51.20;;;;;;5027159;28;20216;-48
2023/07/01 02:39:40;;;;;;;5.30;3.93;;;24.00;51.10;;;;;;5016249;28;20203;-48
2023/07/01 02:42:06;;;;;;;4.80;3.70;;;24.00;51.50;;;;;;5022547;28;20307;-47
2023/07/01 02:44:31;;;;;;;3.70;3.27;;;24.10;51.30;;;;;;5025861;28;20190;-47
2023/07/01 02:46:57;;;;;;;3.93;3.53;;;24.10;51.20;;;;;;5024496;28;20521;-47
2023/07/01 02:49:23;;;;;;;3.60;3.30;;;24.10;51.10;;;;;;5019122;28;20557;-48
2023/07/01 02:51:48;;;;;;;4.00;3.60;;;24.10;51.20;;;;;;5027908;28;20340;-47
2023/07/01 02:54:14;;;;;;;4.43;3.73;;;24.00;51.50;;;;;;5025855;28;20200;-48
2023/07/01 02:56:40;;;;;;;6.73;3.40;;;24.00;51.90;;;;;;5024655;28;20870;-48
2023/07/01 02:59:05;;;;;;;5.50;4.27;;;24.00;52.00;;;;;;5022382;28;20239;-48
2023/07/01 03:01:31;;;;;;;3.27;2.97;;;24.00;52.00;;;;;;5016295;28;20237;-48
2023/07/01 03:03:56;;;;;;;4.80;4.10;;;23.90;52.20;;;;;;5024641;28;20220;-47
2023/07/01 03:06:22;;;;;;;4.47;4.07;;;23.80;52.50;;;;;;5024997;28;20199;-49
2023/07/01 03:08:48;;;;;;;4.37;3.10;;;23.80;52.90;;;;;;5014670;28;20228;-48
2023/07/01 03:11:13;;;;;;;7.63;6.03;;;23.70;52.80;;;;;;5016840;28;20552;-47
2023/07/01 03:13:39;;;;;;;3.50;3.20;;;23.80;52.80;;;;;;5023108;28;20196;-49
2023/07/01 03:16:06;;;;;;;4.83;3.80;;;23.80;52.80;;;;;;5016538;28;20678;-47
2023/07/01 03:18:33;;;;;;;5.20;4.20;;;23.70;52.80;;;;;;5023865;28;20198;-49
2023/07/01 03:21:00;;;;;;;4.80;3.63;;;23.70;53.00;;;;;;5021425;28;20584;-51
2023/07/01 03:23:30;;;;;;;4.23;3.83;;;23.70;53.30;;;;;;5010362;28;20955;-49
2023/07/01 03:25:56;;;;;;;5.47;3.70;;;23.60;53.50;;;;;;5012382;28;20469;-49
2023/07/01 03:28:22;;;;;;;5.40;3.90;;;23.50;53.60;;;;;;5012516;28;20448;-48
2023/07/01 03:30:48;;;;;;;4.27;3.87;;;23.40;53.90;;;;;;5015378;28;20471;-48
2023/07/01 03:33:15;;;;;;;4.80;3.50;;;23.30;54.10;;;;;;5011047;28;20496;-48
2023/07/01 03:35:41;;;;;;;4.43;3.27;;;23.00;54.60;;;;;;5024262;28;20197;-50
2023/07/01 03:38:06;;;;;;;3.50;2.87;;;22.90;55.00;;;;;;5014968;28;20474;-49
2023/07/01 03:40:32;;;;;;;4.97;3.50;;;22.90;55.10;;;;;;5019374;28;20251;-47
2023/07/01 03:42:58;;;;;;;4.33;3.70;;;23.00;54.90;;;;;;5027182;28;20268;-51
2023/07/01 03:45:23;;;;;;;4.00;3.60;;;23.10;54.70;;;;;;5016142;28;20189;-49
2023/07/01 03:47:49;;;;;;;4.87;3.30;;;23.20;54.50;;;;;;5019148;28;20900;-47
2023/07/01 03:50:15;;;;;;;3.97;3.43;;;23.20;54.10;;;;;;5026795;28;20194;-50
2023/07/01 03:52:41;;;;;;;4.70;3.23;;;23.20;54.20;;;;;;5018999;28;20201;-47
2023/07/01 03:55:08;;;;;;;3.57;3.27;;;23.20;54.00;;;;;;5013163;28;20459;-48
2023/07/01 03:57:35;;;;;;;3.03;2.73;;;23.20;53.80;;;;;;5023495;28;20471;-53
2023/07/01 04:00:08;;;;;;;3.70;3.13;;;23.30;53.50;;;;;;5022168;28;20440;-48
2023/07/01 04:02:37;;;;;;;3.37;3.07;;;23.30;53.60;;;;;;5023130;28;20495;-50
2023/07/01 04:05:09;;;;;;;3.40;3.10;;;23.30;53.50;;;;;;5023492;28;20452;-48
2023/07/01 04:07:46;;;;;;;7.07;3.90;;;23.30;53.40;;;;;;5032576;28;20803;-48
2023/07/01 04:10:12;;;;;;;3.80;2.90;;;23.20;53.40;;;;;;5025081;28;20958;-49
2023/07/01 04:12:38;;;;;;;4.73;3.00;;;23.20;53.60;;;;;;5026887;28;20440;-48
2023/07/01 04:15:09;;;;;;;4.90;3.07;;;23.20;53.70;;;;;;5022068;28;20451;-48
2023/07/01 04:17:36;;;;;;;4.00;2.83;;;23.10;53.70;;;;;;5032096;28;20447;-48
2023/07/01 04:20:03;;;;;;;3.27;3.00;;;23.20;54.00;;;;;;5031150;28;20454;-47
2023/07/01 04:22:29;;;;;;;4.87;3.67;;;23.20;54.10;;;;;;5030479;28;20514;-48
2023/07/01 04:24:54;;;;;;;5.60;3.80;;;23.30;54.10;;;;;;5020628;28;20469;-48
2023/07/01 04:27:20;;;;;;;7.07;2.87;;;23.30;53.80;;;;;;5015027;28;20726;-50
2023/07/01 04:29:45;;;;;;;3.70;3.27;;;23.30;54.10;;;;;;5017835;28;20199;-48
2023/07/01 04:32:11;;;;;;;3.53;3.23;;;23.30;54.40;;;;;;5013536;28;20232;-49
2023/07/01 04:34:37;;;;;;;3.50;3.20;;;23.20;53.80;;;;;;5019016;28;20190;-48
2023/07/01 04:37:02;;;;;;;3.13;2.83;;;23.10;54.00;;;;;;5020317;28;20663;-47
2023/07/01 04:39:28;;;;;;;4.50;3.10;;;23.00;54.30;;;;;;5018678;28;20186;-53
2023/07/01 04:41:53;;;;;;;3.50;3.00;;;22.90;54.50;;;;;;5027282;28;20231;-48
2023/07/01 04:44:19;;;;;;;4.17;3.27;;;22.80;54.90;;;;;;5026828;28;20201;-47
2023/07/01 04:46:44;;;;;;;4.17;3.77;;;22.70;55.40;;;;;;5020509;28;20201;-51
2023/07/01 04:49:10;;;;;;;5.03;3.20;;;22.60;55.50;;;;;;5021457;28;20247;-47
2023/07/01 04:51:39;;;;;;;4.63;3.40;;;22.60;55.60;;;;;;5012142;28;20193;-48
2023/07/01 04:54:04;;;;;;;5.63;2.70;;;22.70;55.70;;;;;;5018056;28;20248;-48
2023/07/01 04:56:31;;;;;;;3.23;2.93;;;22.70;55.70;;;;;;5021452;28;21427;-49
2023/07/01 04:58:57;;;;;;;3.40;3.10;;;22.50;56.00;;;;;;5029810;28;20201;-48
2023/07/01 05:01:23;;;;;;;3.40;3.10;;;22.20;56.70;;;;;;5016868;28;20499;-48
2023/07/01 05:03:48;;;;;;;4.30;3.03;;;21.70;57.80;;;;;;5029687;28;20260;-47
2023/07/01 05:06:14;;;;;;;4.80;4.27;;;21.60;58.50;;;;;;5026268;28;20597;-47
2023/07/01 05:08:39;;;;;;;5.17;3.10;;;21.80;58.10;;;;;;5023378;28;20194;-47
2023/07/01 05:11:05;;;;;;;4.23;3.47;;;21.60;58.30;;;;;;5026976;28;20201;-47
2023/07/01 05:13:31;;;;;;;3.67;3.30;;;21.70;58.40;;;;;;5020041;28;20196;-47
2023/07/01 05:15:57;;;;;;;3.70;3.40;;;22.00;58.00;;;;;;5012489;28;20193;-47
2023/07/01 05:18:22;;;;;;;3.50;3.20;;;22.10;57.50;;;;;;5023264;28;20204;-47
2023/07/01 05:20:48;;;;;;;8.33;3.20;;;22.10;57.40;;;;;;5013528;28;20468;-47
2023/07/01 05:23:13;;;;;;;4.10;3.17;;;22.00;57.40;;;;;;5025171;28;20200;-48
2023/07/01 05:25:40;;;;;;;4.80;3.57;;;22.10;57.40;;;;;;5015003;28;20237;-52
2023/07/01 05:28:06;;;;;;;3.50;3.00;;;22.10;57.00;;;;;;5028190;28;20645;-49
2023/07/01 05:30:31;;;;;;;3.97;3.60;;;22.10;57.30;;;;;;5025816;28;20444;-50
2023/07/01 05:32:57;;;;;;;3.57;3.27;;;22.00;57.60;;;;;;5025121;28;20616;-47
2023/07/01 05:35:22;;;;;;;3.67;3.03;;;21.90;57.20;;;;;;5024696;28;20697;-50
2023/07/01 05:37:48;;;;;;;3.00;2.80;;;22.00;57.40;;;;;;5019858;28;20190;-47
2023/07/01 05:40:14;;;;;;;2.80;2.50;;;22.10;57.60;;;;;;5003847;28;20204;-49
2023/07/01 05:42:43;;;;;;;3.70;3.40;;;22.30;56.90;;;;;;5014787;28;20234;-52
2023/07/01 05:45:09;;;;;;;15.87;4.10;;;22.30;56.70;;;;;;5019200;28;20225;-47
2023/07/01 05:47:35;;;;;;;6.60;2.80;;;22.50;56.90;;;;;;5028054;28;20444;-48
2023/07/01 05:50:00;;;;;;;5.93;2.80;;;22.80;57.40;;;;;;5015327;28;20947;-47
2023/07/01 05:52:26;;;;;;;9.17;3.47;;;23.00;56.00;;;;;;5024535;28;20208;-47
2023/07/01 05:54:52;;;;;;;3.70;2.87;;;23.20;55.30;;;;;;5024640;28;20208;-47
2023/07/01 05:57:18;;;;;;;4.53;2.90;;;23.50;54.80;;;;;;5023231;28;20193;-47
2023/07/01 05:59:43;;;;;;;2.90;2.70;;;23.50;53.20;;;;;;5000363;28;20251;-48
2023/07/01 06:02:09;;;;;;;5.13;3.43;;;23.60;52.10;;;;;;5022050;28;20503;-47
2023/07/01 06:04:35;;;;;;;4.97;2.90;;;23.60;52.20;;;;;;5018089;28;20200;-49
2023/07/01 06:07:00;;;;;;;4.30;2.93;;;23.70;52.20;;;;;;5028170;28;20205;-48
2023/07/01 06:09:26;;;;;;;4.00;2.93;;;23.90;52.00;;;;;;5029622;28;20243;-49
2023/07/01 06:11:52;;;;;;;2.60;2.40;;;23.90;51.30;;;;;;5025334;28;20247;-48
2023/07/01 06:14:18;;;;;;;3.60;2.40;;;24.00;50.30;;;;;;5014197;28;20618;-48
2023/07/01 06:16:44;;;;;;;4.23;2.57;;;23.90;50.20;;;;;;5017177;28;20444;-49
2023/07/01 06:19:09;;;;;;;6.40;2.33;;;24.10;50.10;;;;;;5024464;28;20215;-48
2023/07/01 06:21:35;;;;;;;5.10;2.70;;;24.10;49.50;;;;;;5018297;28;20269;-49
2023/07/01 06:24:00;;;;;;;2.60;2.40;;;24.30;49.40;;;;;;5024832;28;20227;-48
2023/07/01 06:26:26;;;;;;;2.60;2.40;;;24.30;48.50;;;;;;5028943;28;20668;-49
2023/07/01 06:28:51;;;;;;;2.93;2.63;;;24.40;48.80;;;;;;5026630;28;20222;-51
2023/07/01 06:31:17;;;;;;;3.07;2.77;;;24.30;48.10;;;;;;5028156;28;20259;-49
2023/07/01 06:33:44;;;;;;;2.70;2.40;;;24.00;47.30;;;;;;5023701;28;20246;-50
2023/07/01 06:36:10;;;;;;;2.83;2.20;;;24.00;47.60;;;;;;5017030;28;20305;-52
2023/07/01 06:38:36;;;;;;;3.30;2.10;;;24.00;47.70;;;;;;5023925;28;20538;-50
2023/07/01 06:41:01;;;;;;;3.40;2.33;;;24.10;47.20;;;;;;5025407;28;20992;-48
2023/07/01 06:43:27;;;;;;;2.93;2.53;;;24.10;46.30;;;;;;5026903;28;20575;-51
2023/07/01 06:45:52;;;;;;;3.07;1.90;;;24.30;46.70;;;;;;5024170;28;20189;-49
2023/07/01 06:48:18;;;;;;;5.03;2.47;;;24.30;45.80;;;;;;5025563;28;20189;-52
2023/07/01 06:50:43;;;;;;;2.43;1.93;;;24.30;45.40;;;;;;5023117;28;20197;-48
2023/07/01 06:53:09;;;;;;;3.20;2.23;;;24.30;44.70;;;;;;5027873;28;20189;-50
2023/07/01 06:55:34;;;;;;;2.73;1.90;;;24.40;44.80;;;;;;5027764;28;20201;-52
2023/07/01 06:58:03;;;;;;;4.77;1.90;;;24.60;44.20;;;;;;5022485;28;20273;-51
2023/07/01 07:00:30;;;;;;;4.50;2.10;;;24.80;44.20;;;;;;5010083;28;20194;-48
2023/07/01 07:02:56;;;;;;;4.10;2.20;;;24.70;44.00;;;;;;5026665;28;20467;-49
2023/07/01 07:05:21;;;;;;;4.17;1.90;;;24.80;44.00;;;;;;5028513;28;20505;-48
2023/07/01 07:07:47;;;;;;;4.00;1.80;;;24.80;42.80;;;;;;5029797;28;20439;-48
2023/07/01 07:10:13;;;;;;;2.60;1.90;;;24.90;42.50;;;;;;5029575;28;20243;-48
2023/07/01 07:12:39;;;;;;;4.60;2.20;;;25.00;42.90;;;;;;5026015;28;20216;-51
2023/07/01 07:15:05;;;;;;;2.93;2.10;;;25.20;42.60;;;;;;5024914;28;20193;-48
2023/07/01 07:17:30;;;;;;;3.50;2.30;;;25.30;41.90;;;;;;5026982;28;20208;-50
2023/07/01 07:19:56;;;;;;;2.77;2.00;;;25.40;41.80;;;;;;5015145;28;20467;-47
2023/07/01 07:22:21;;;;;;;1.93;1.73;;;25.50;42.00;;;;;;5010722;28;20234;-49
2023/07/01 07:24:47;;;;;;;6.17;2.40;;;25.50;42.50;;;;;;5011269;28;20715;-48
2023/07/01 07:27:13;;;;;;;2.33;1.97;;;25.70;41.80;;;;;;5027183;28;20224;-51
2023/07/01 07:29:39;;;;;;;2.87;1.90;;;25.80;41.90;;;;;;5028573;28;20246;-52
2023/07/01 07:32:05;;;;;;;4.47;2.50;;;26.00;41.60;;;;;;5030408;28;20197;-48
2023/07/01 07:34:31;;;;;;;2.27;2.00;;;26.20;40.90;;;;;;5021160;28;20439;-49
2023/07/01 07:36:57;;;;;;;2.43;2.23;;;26.20;40.70;;;;;;5021182;28;20444;-48
2023/07/01 07:39:23;;;;;;;4.70;2.37;;;26.10;40.60;;;;;;5027295;28;20303;-54
2023/07/01 07:41:49;;;;;;;2.70;2.17;;;26.00;40.40;;;;;;5028117;28;20963;-48
2023/07/01 07:44:15;;;;;;;7.50;2.00;;;26.20;41.30;;;;;;5024634;28;20193;-50
2023/07/01 07:46:42;;;;;;;2.40;1.83;;;26.20;40.60;;;;;;5029462;28;20789;-51
2023/07/01 07:49:07;;;;;;;6.80;2.23;;;26.30;40.60;;;;;;5029853;28;20195;-50
2023/07/01 07:51:33;;;;;;;2.73;2.10;;;26.40;40.20;;;;;;5029393;28;20470;-52
2023/07/01 07:53:59;;;;;;;2.50;1.77;;;26.40;39.90;;;;;;5027459;28;20362;-49
2023/07/01 07:56:25;;;;;;;4.37;1.73;;;26.20;40.10;;;;;;5023751;28;20201;-48
2023/07/01 07:58:51;;;;;;;3.83;2.30;;;26.20;39.50;;;;;;5030272;28;20204;-50
2023/07/01 08:01:16;;;;;;;3.90;2.40;;;26.60;40.20;;;;;;5013559;28;20233;-49
2023/07/01 08:03:42;;;;;;;4.40;2.23;;;26.70;40.60;;;;;;5024633;28;20236;-53
2023/07/01 08:06:08;;;;;;;1.90;1.80;;;27.00;39.40;;;;;;5014035;28;20276;-49
2023/07/01 08:08:35;;;;;;;8.00;2.23;;;27.20;39.80;;;;;;5016965;28;20491;-49
2023/07/01 08:11:01;;;;;;;3.30;1.90;;;27.20;39.20;;;;;;5013451;28;20205;-49
2023/07/01 08:13:26;;;;;;;2.27;2.07;;;27.30;39.50;;;;;;5032630;28;20439;-48
2023/07/01 08:15:52;;;;;;;5.80;2.53;;;27.20;39.20;;;;;;5031744;28;20503;-48
2023/07/01 08:18:18;;;;;;;2.23;2.03;;;27.30;38.90;;;;;;5030559;28;20648;-48
2023/07/01 08:20:44;;;;;;;2.37;2.07;;;27.50;39.10;;;;;;5012564;28;20324;-48
2023/07/01 08:23:10;;;;;;;3.23;1.83;;;27.60;38.50;;;;;;5027932;28;20275;-51
2023/07/01 08:25:39;;;;;;;4.10;2.00;;;27.50;38.20;;;;;;5014567;28;20844;-49
2023/07/01 08:28:04;;;;;;;2.90;2.00;;;27.20;38.90;;;;;;5018324;28;20441;-49
2023/07/01 08:30:30;;;;;;;2.30;2.10;;;27.40;39.10;;;;;;5012436;28;20460;-48
2023/07/01 08:32:55;;;;;;;4.10;2.50;;;27.40;38.80;;;;;;5022569;28;20193;-48
2023/07/01 08:35:21;;;;;;;2.93;2.17;;;27.40;38.80;;;;;;5013318;28;20884;-50
2023/07/01 08:37:47;;;;;;;3.90;1.90;;;27.60;38.70;;;;;;5030367;28;20576;-50
2023/07/01 08:40:12;;;;;;;2.90;2.00;;;27.80;38.90;;;;;;5031996;28;20193;-48
2023/07/01 08:42:50;;;;;;;3.83;2.17;;;27.80;38.10;;;;;;5018235;28;20234;-48
2023/07/01 08:45:20;;;;;;;2.77;2.27;;;27.90;38.30;;;;;;5012432;28;20189;-49
2023/07/01 08:47:47;;;;;;;3.43;2.50;;;27.90;38.20;;;;;;5020967;28;20444;-48
2023/07/01 08:50:18;;;;;;;2.80;2.60;;;28.00;38.20;;;;;;5012123;28;20797;-49
2023/07/01 08:52:46;;;;;;;2.57;2.37;;;27.70;38.10;;;;;;5012797;28;20523;-49
2023/07/01 08:55:12;;;;;;;2.33;2.13;;;27.40;37.80;;;;;;5017763;28;20452;-49
2023/07/01 08:57:39;;;;;;;2.90;2.40;;;27.10;38.90;;;;;;5027981;28;20435;-48
2023/07/01 09:00:09;;;;;;;2.90;2.37;;;26.90;39.20;;;;;;5028822;28;20447;-49
2023/07/01 09:02:36;;;;;;;2.50;2.30;;;27.20;40.00;;;;;;5030746;28;20488;-54
2023/07/01 09:05:03;;;;;;;2.57;2.37;;;27.20;40.00;;;;;;5020793;28;20990;-50
2023/07/01 09:07:29;;;;;;;4.37;2.43;;;27.30;39.90;;;;;;5012416;28;20441;-48
2023/07/01 09:09:59;;;;;;;6.33;3.00;;;27.40;40.20;;;;;;5011125;28;20432;-49
2023/07/01 09:12:26;;;;;;;4.00;2.20;;;27.50;38.90;;;;;;5025611;28;20443;-48
2023/07/01 09:15:03;;;;;;;5.33;2.30;;;27.60;40.00;;;;;;5031882;28;20911;-48
2023/07/01 09:17:34;;;;;;;4.73;2.47;;;27.80;39.50;;;;;;5031970;28;20427;-48
2023/07/01 09:20:04;;;;;;;2.63;2.43;;;27.80;39.30;;;;;;5017381;28;20440;-48
2023/07/01 09:22:30;;;;;;;2.93;2.20;;;27.80;38.90;;;;;;5020580;28;20852;-49
2023/07/01 09:24:56;;;;;;;4.27;2.33;;;27.90;39.00;;;;;;5011536;28;20465;-49
2023/07/01 09:27:22;;;;;;;3.03;2.33;;;28.00;39.10;;;;;;5020938;28;20848;-50
2023/07/01 09:29:47;;;;;;;2.60;2.40;;;27.90;37.90;;;;;;5021088;28;20197;-48
2023/07/01 09:32:28;;;;;;;6.40;2.33;;;27.80;38.80;;;;;;5024432;28;20679;-48
2023/07/01 09:34:57;;;;;;;4.37;2.20;;;27.90;37.10;;;;;;5031357;28;20259;-49
2023/07/01 09:37:23;;;;;;;2.27;2.07;;;27.80;36.70;;;;;;5021664;28;20863;-48
2023/07/01 09:39:49;;;;;;;2.50;2.30;;;27.90;37.20;;;;;;5029070;28;20943;-47
2023/07/01 09:42:16;;;;;;;2.50;2.30;;;27.80;36.60;;;;;;5031844;28;20494;-48
2023/07/01 09:44:43;;;;;;;3.30;2.00;;;27.60;36.20;;;;;;5031121;28;20455;-48
2023/07/01 09:47:10;;;;;;;3.13;1.80;;;27.70;35.70;;;;;;5027441;28;20468;-47
2023/07/01 09:49:40;;;;;;;4.20;1.90;;;27.80;35.40;;;;;;5030709;28;20782;-47
2023/07/01 09:52:06;;;;;;;1.90;1.80;;;27.70;34.70;;;;;;5031589;28;20445;-48
2023/07/01 09:54:31;;;;;;;1.93;1.83;;;27.50;34.70;;;;;;5030982;28;20424;-48
2023/07/01 09:56:58;;;;;;;2.80;1.60;;;27.40;34.50;;;;;;5025336;28;20695;-52
2023/07/01 09:59:25;;;;;;;2.37;2.17;;;27.70;34.60;;;;;;5011863;28;20668;-47
2023/07/01 10:01:55;;;;;;;4.77;1.97;;;27.60;34.80;;;;;;5011441;28;20489;-48
2023/07/01 10:04:25;;;;;;;4.70;1.90;;;27.60;33.90;;;;;;5015642;28;20444;-51
2023/07/01 10:06:52;;;;;;;3.40;1.87;;;27.60;34.20;;;;;;5026930;28;20446;-48
2023/07/01 10:09:17;;;;;;;2.00;1.60;;;27.90;34.30;;;;;;5020127;28;20440;-52
2023/07/01 10:11:43;;;;;;;2.23;1.97;;;27.90;34.10;;;;;;5026626;28;20447;-49
2023/07/01 10:14:10;;;;;;;2.80;2.10;;;28.00;33.60;;;;;;5026015;28;20193;-49
2023/07/01 10:16:49;;;;;;;2.83;2.10;;;28.20;33.70;;;;;;5026432;28;20456;-49
2023/07/01 10:19:32;;;;;;;2.83;2.53;;;28.30;33.70;;;;;;5025362;28;20455;-50
2023/07/01 10:22:29;;;;;;;6.93;2.20;;;28.10;31.40;;;;;;5019119;28;20515;-49
2023/07/01 10:25:02;;;;;;;2.93;2.63;;;27.90;30.90;;;;;;5022489;28;20503;-51
2023/07/01 10:27:40;;;;;;;2.50;2.30;;;27.90;32.40;;;;;;5026492;28;20482;-48
2023/07/01 10:30:15;;;;;;;2.87;2.67;;;28.30;32.10;;;;;;5024057;28;20456;-49
2023/07/01 10:32:41;;;;;;;3.30;1.90;;;28.60;31.40;;;;;;5022804;28;20534;-54
2023/07/01 10:35:08;;;;;;;3.67;2.83;;;28.50;31.20;;;;;;5017241;28;20548;-50
2023/07/01 10:37:34;;;;;;;3.70;3.23;;;28.60;31.20;;;;;;5025567;28;20209;-49
2023/07/01 10:40:07;;;;;;;4.90;2.77;;;28.50;29.90;;;;;;5010765;28;20425;-49
2023/07/01 10:42:34;;;;;;;3.60;3.03;;;28.20;29.20;;;;;;5014045;28;20524;-53
2023/07/01 10:45:12;;;;;;;3.53;3.23;;;28.40;30.20;;;;;;5018474;28;20449;-50
2023/07/01 10:47:50;;;;;;;3.10;2.80;;;28.30;30.30;;;;;;5024819;28;20451;-50
2023/07/01 10:50:19;;;;;;;4.27;2.77;;;28.40;30.80;;;;;;5029744;28;21006;-49
2023/07/01 10:52:57;;;;;;;3.10;2.90;;;28.50;31.00;;;;;;5023360;28;20437;-54
2023/07/01 10:55:46;;;;;;;3.23;2.97;;;28.40;30.10;;;;;;5020737;28;20455;-50
2023/07/01 10:58:21;;;;;;;4.33;3.10;;;28.40;31.20;;;;;;5024443;28;20474;-50
2023/07/01 11:00:48;;;;;;;3.87;2.60;;;28.10;30.70;;;;;;5029789;28;20853;-49
2023/07/01 11:03:32;;;;;;;3.57;2.63;;;28.00;31.70;;;;;;5028761;28;20531;-49
2023/07/01 11:05:59;;;;;;;3.33;3.03;;;28.40;31.00;;;;;;5017908;28;20454;-49
2023/07/01 11:08:29;;;;;;;2.90;2.70;;;28.60;30.00;;;;;;5026359;28;20443;-50
2023/07/01 11:10:55;;;;;;;3.17;2.87;;;28.80;30.50;;;;;;5024768;28;20854;-49
2023/07/01 11:13:21;;;;;;;3.93;3.47;;;28.80;31.30;;;;;;5029912;28;20447;-51
2023/07/01 11:16:10;;;;;;;3.70;2.83;;;28.90;29.80;;;;;;5029856;28;20595;-50
2023/07/01 11:18:50;;;;;;;3.33;2.90;;;28.70;30.60;;;;;;5027143;28;20456;-49
2023/07/01 11:21:24;;;;;;;3.43;3.13;;;28.90;30.20;;;;;;5024197;28;21081;-49
2023/07/01 11:24:06;;;;;;;3.03;2.83;;;28.50;29.90;;;;;;5032987;28;21092;-52
2023/07/01 11:26:35;;;;;;;3.90;3.20;;;28.60;31.80;;;;;;4994775;28;20449;-51
2023/07/01 11:29:02;;;;;;;9.40;3.70;;;28.70;30.20;;;;;;4989564;28;20445;-49
2023/07/01 11:31:34;;;;;;;3.47;3.17;;;28.70;30.00;;;;;;4991941;28;20533;-50
2023/07/01 11:34:01;;;;;;;3.53;3.10;;;29.00;30.10;;;;;;4982822;28;21125;-50
2023/07/01 11:36:40;;;;;;;3.30;3.00;;;29.00;30.10;;;;;;4993634;28;20457;-49
2023/07/01 11:39:10;;;;;;;3.90;3.30;;;29.10;30.00;;;;;;4991483;28;20453;-49
2023/07/01 11:41:37;;;;;;;3.93;3.57;;;29.50;29.80;;;;;;4992210;28;20488;-49
2023/07/01 11:44:05;;;;;;;4.00;3.10;;;29.10;30.00;;;;;;4982553;28;20602;-49
2023/07/01 11:46:37;;;;;;;3.97;3.27;;;29.10;30.80;;;;;;4980587;28;20505;-49
2023/07/01 11:49:18;;;;;;;3.10;2.80;;;29.30;31.50;;;;;;4979557;28;20458;-54
2023/07/01 11:51:48;;;;;;;2.90;2.70;;;29.20;31.50;;;;;;4986542;28;20441;-50
2023/07/01 11:54:15;;;;;;;3.40;3.10;;;29.30;32.00;;;;;;4974488;28;20438;-49
2023/07/01 11:56:42;;;;;;;3.40;2.60;;;29.20;31.50;;;;;;4985027;28;20535;-49
2023/07/01 11:59:08;;;;;;;4.67;3.00;;;29.30;31.70;;;;;;4976980;28;20581;-51
2023/07/01 12:01:37;;;;;;;3.80;2.53;;;29.00;31.50;;;;;;4983608;28;20486;-49
2023/07/01 12:04:16;;;;;;;3.70;2.33;;;29.00;31.50;;;;;;4976377;28;20374;-49
2023/07/01 12:06:42;;;;;;;3.80;3.03;;;29.10;31.70;;;;;;4983370;28;20442;-49
2023/07/01 12:09:08;;;;;;;3.97;2.93;;;29.00;31.20;;;;;;4992964;28;20429;-50
2023/07/01 12:11:45;;;;;;;6.43;3.00;;;29.20;31.80;;;;;;4991493;28;20282;-49
2023/07/01 12:14:18;;;;;;;4.47;3.70;;;29.30;30.90;;;;;;4990654;28;20457;-49
2023/07/01 12:16:47;;;;;;;6.33;3.77;;;29.30;31.30;;;;;;4993061;28;20812;-49
2023/07/01 12:19:14;;;;;;;5.37;3.60;;;29.20;31.20;;;;;;4972904;28;20831;-49
2023/07/01 12:21:40;;;;;;;4.70;2.80;;;29.40;31.20;;;;;;4980634;28;20498;-49
2023/07/01 12:24:20;;;;;;;2.83;2.60;;;29.30;31.60;;;;;;4977368;28;20439;-49
2023/07/01 12:26:53;;;;;;;3.60;2.77;;;29.20;32.10;;;;;;5022017;28;20444;-50
2023/07/01 12:29:19;;;;;;;3.20;2.90;;;29.20;32.70;;;;;;5030822;28;20566;-53
2023/07/01 12:31:45;;;;;;;3.43;2.90;;;29.10;32.80;;;;;;5027247;28;20944;-49
2023/07/01 12:34:11;;;;;;;3.10;2.90;;;29.00;32.60;;;;;;5031250;28;20497;-49
2023/07/01 12:36:37;;;;;;;3.50;3.20;;;29.00;32.90;;;;;;5028472;28;21658;-48
2023/07/01 12:39:05;;;;;;;2.80;2.60;;;28.80;32.20;;;;;;5028859;28;20193;-48
2023/07/01 12:41:34;;;;;;;3.13;2.87;;;28.70;32.70;;;;;;5027437;28;20237;-52
2023/07/01 12:43:59;;;;;;;3.50;2.83;;;28.20;33.00;;;;;;5030764;28;20452;-52
2023/07/01 12:46:25;;;;;;;3.37;2.50;;;28.20;34.00;;;;;;5030210;28;21034;-50
2023/07/01 12:48:51;;;;;;;2.63;2.43;;;28.40;34.20;;;;;;5032078;28;20189;-48
2023/07/01 12:51:17;;;;;;;4.23;2.40;;;28.60;34.00;;;;;;5031883;28;20280;-49